NCAR-RAP Real-Time Weather Data

Output produced by METARs form (08 May 2021  01:53 UTC)
found at http://weather.rap.ucar.edu/surface/
 
KRIW 080053Z AUTO 29020G26KT 10SM CLR 22/M03 A2970 RMK AO2 PK WND 26035/0031 SLP008 T02221028 $
KRIW 072353Z AUTO 25026G34KT 10SM CLR 23/M03 A2970 RMK AO2 PK WND 25038/2255 SLP007 T02331033 10267 20183 56020 $
KRIW 072253Z AUTO 25025G36KT 10SM FEW110 26/M06 A2971 RMK AO2 PK WND 24036/2253 SLP009 T02561056
KRIW 072153Z AUTO 27008G17KT 10SM CLR 27/M04 A2973 RMK AO2 SLP015 T02671039
KRIW 072053Z AUTO 21011G20KT 10SM CLR 26/M02 A2977 RMK AO2 SLP026 T02611022 56035
KRIW 071953Z AUTO 25007KT 10SM CLR 24/01 A2981 RMK AO2 SLP040 T02390011
KRIW 071853Z AUTO 00000KT 10SM CLR 21/02 A2985 RMK AO2 SLP055 T02110017
KRIW 071753Z AUTO 00000KT 10SM CLR 19/02 A2989 RMK AO2 SLP072 T01890017 10189 20056 58024
KRIW 071653Z AUTO VRB03KT 10SM CLR 17/02 A2992 RMK AO2 SLP081 T01720017
KRIW 071553Z AUTO VRB03KT 10SM CLR 14/01 A2996 RMK AO2 SLP097 T01440006
KRIW 071453Z AUTO 25005KT 10SM CLR 11/01 A2998 RMK AO2 SLP108 T01110006 58009
KRIW 071353Z AUTO 26006KT 10SM CLR 09/01 A2999 RMK AO2 SLP111 T00940011
KRIW 071253Z AUTO 32006KT 10SM CLR 08/01 A3000 RMK AO2 SLP114 T00780006